Weather History for KSJX - January, 2014

Change the Weather History Date:

Thursday, January 16, 2014

  Actual Average Record
Temperature  
Mean Temperature 24 °F -  
Max Temperature 27 °F 26 °F 42 °F (1988)
Min Temperature 22 °F 14 °F -8 °F (1982)
Degree Days  
Heating Degree Days 40    
Moisture  
Dew Point 21 °F    
Average Humidity 86    
Maximum Humidity 91    
Minimum Humidity 80    
Precipitation  
Precipitation 0.00 in - - ()
Sea Level Pressure  
Sea Level Pressure 29.52 in    
Wind  
Wind Speed 11 mph (SSE)    
Max Wind Speed 20 mph    
Max Gust Speed 28 mph    
Visibility 5 miles    
Events Snow    
Averages and records for this station are not official NWS values.
T = Trace of Precipitation, MM = Missing Value Source: NWS Daily Summary

Daily Weather History Graph

Daily Weather History Graph

Search for Another Location

Airport or City:

Trip Planner

Search our weather history database for the weather conditions in past years. The results will help you decide how hot, cold, wet, or windy it might be!

Date:

Astronomy

Jan. 16, 2014 Rise Set
Actual Time 8:18 AM EST 5:26 PM EST
Civil Twilight 7:45 AM EST 5:59 PM EST
Nautical Twilight 7:08 AM EST 6:35 PM EST
Astronomical Twilight 6:33 AM EST 7:11 PM EST
Moon 6:22 PM EST (1/16) 8:07 AM EST (1/16)
Length of Visible Light 10h 13m
Length of Day
9h 07m
Full, 100% of the Moon is Illuminated
Jan 16
Full
Jan 24
Last Quarter
Jan 30
New
Feb 6
First Quarter
Feb 14
Full

Hourly Weather History & Observations

Time (EST) Temp. Windchill Dew Point Humidity Pressure Visibility Wind Dir Wind Speed Gust Speed Precip Events Conditions
12:16 AM 23.0 °F 13.1 °F 17.6 °F 80% 29.67 in 5.0 mi South 9.2 mph 18.4 mph N/A Snow Light Snow
12:35 AM 22.8 °F 10.9 °F 18.7 °F 84% 29.67 in 2.5 mi SSW 12.7 mph 19.6 mph N/A Snow Light Snow
12:55 AM 22.6 °F 11.3 °F 18.9 °F 85% 29.67 in 2.0 mi South 11.5 mph 19.6 mph N/A Snow Light Snow
1:15 AM 22.3 °F 10.8 °F 19.4 °F 89% 29.65 in 1.5 mi South 11.5 mph 18.4 mph N/A Snow Light Snow
1:35 AM 22.5 °F 13.2 °F 19.4 °F 88% 29.64 in 1.8 mi South 8.1 mph 20.7 mph N/A Snow Light Snow
1:55 AM 22.5 °F 12.4 °F 19.4 °F 88% 29.62 in 2.5 mi South 9.2 mph 16.1 mph N/A Snow Light Snow
2:15 AM 22.6 °F 12.6 °F 19.2 °F 87% 29.62 in 3.0 mi South 9.2 mph 21.9 mph N/A Snow Light Snow
2:35 AM 22.8 °F 12.2 °F 19.4 °F 87% 29.61 in 2.0 mi South 10.4 mph 18.4 mph N/A Snow Light Snow
2:56 AM 22.1 °F 12.8 °F 19.4 °F 89% 29.61 in 1.2 mi South 8.1 mph 16.1 mph N/A Snow Light Snow
3:15 AM 22.6 °F 10.1 °F 19.9 °F 89% 29.59 in 1.8 mi South 13.8 mph 17.3 mph N/A Snow Light Snow
3:35 AM 22.6 °F 11.3 °F 19.9 °F 89% 29.58 in 1.0 mi South 11.5 mph 19.6 mph N/A Snow Snow
3:56 AM 22.1 °F 10.6 °F 19.8 °F 91% 29.57 in 0.8 mi South 11.5 mph 20.7 mph N/A Snow Snow
4:15 AM 22.1 °F 10.0 °F 19.9 °F 91% 29.56 in 0.8 mi South 12.7 mph 23.0 mph N/A Snow Snow
4:35 AM 22.6 °F 11.3 °F 19.9 °F 89% 29.55 in 1.2 mi South 11.5 mph 24.2 mph N/A Snow Light Snow
4:55 AM 22.5 °F 10.5 °F 19.6 °F 89% 29.54 in 1.5 mi South 12.7 mph 23.0 mph N/A Snow Light Snow
5:15 AM 22.8 °F 10.9 °F 19.4 °F 87% 29.53 in 1.2 mi South 12.7 mph 25.3 mph N/A Snow Light Snow
5:35 AM 22.8 °F 9.9 °F 19.4 °F 87% 29.52 in 1.5 mi South 15.0 mph 21.9 mph N/A Snow Light Snow
5:55 AM 22.8 °F 11.5 °F 19.6 °F 87% 29.50 in 1.5 mi South 11.5 mph 20.7 mph N/A Snow Light Snow
6:15 AM 23.4 °F 10.1 °F 20.1 °F 87% 29.50 in 1.8 mi SSE 16.1 mph 21.9 mph N/A Snow Light Snow
6:35 AM 23.4 °F 12.2 °F 19.6 °F 85% 29.49 in 2.5 mi SSE 11.5 mph 26.5 mph N/A Snow Light Snow
6:55 AM 23.2 °F 9.8 °F 19.4 °F 85% 29.49 in 3.0 mi SSE 16.1 mph 24.2 mph N/A Snow Light Snow
7:16 AM 23.5 °F 12.4 °F 19.4 °F 84% 29.48 in 4.0 mi SSE 11.5 mph 27.6 mph N/A Snow Light Snow
7:35 AM 23.9 °F 9.5 °F 19.4 °F 83% 29.48 in 3.0 mi SSE 19.6 mph 25.3 mph N/A Snow Light Snow
7:55 AM 23.9 °F 12.3 °F 19.8 °F 84% 29.48 in 3.0 mi SSE 12.7 mph 24.2 mph N/A Snow Light Snow
8:15 AM 23.9 °F 12.9 °F 19.4 °F 83% 29.47 in 4.0 mi SSE 11.5 mph 26.5 mph N/A Snow Light Snow
8:35 AM 23.7 °F 12.1 °F 19.6 °F 84% 29.48 in 3.0 mi SSE 12.7 mph 23.0 mph N/A Snow Light Snow
8:56 AM 23.7 °F 14.0 °F 19.4 °F 84% 29.48 in 7.0 mi SSE 9.2 mph 21.9 mph N/A   Overcast
9:15 AM 23.7 °F 11.5 °F 19.4 °F 84% 29.48 in 4.0 mi SSE 13.8 mph 25.3 mph N/A   Haze
9:35 AM 23.7 °F 10.1 °F 19.9 °F 85% 29.48 in 2.0 mi South 17.3 mph 26.5 mph N/A Snow Light Snow
9:56 AM 23.9 °F 12.9 °F 20.3 °F 86% 29.48 in 1.5 mi SSE 11.5 mph 23.0 mph N/A Snow Light Snow
10:15 AM 23.9 °F 10.8 °F 20.8 °F 88% 29.48 in 1.5 mi SSE 16.1 mph 26.5 mph N/A Snow Light Snow
10:35 AM 24.4 °F 14.2 °F 21.0 °F 87% 29.48 in 2.0 mi SSE 10.4 mph 21.9 mph N/A Snow Light Snow
10:55 AM 24.6 °F 13.2 °F 21.0 °F 86% 29.49 in 2.5 mi SSE 12.7 mph 24.2 mph N/A   Overcast
11:15 AM 24.8 °F 14.0 °F 21.2 °F 86% 29.48 in 3.0 mi SSE 11.5 mph 21.9 mph N/A   Overcast
11:35 AM 24.6 °F 14.4 °F 21.2 °F 87% 29.48 in 3.0 mi SSE 10.4 mph 26.5 mph N/A   Overcast
11:55 AM 24.3 °F 12.2 °F 21.0 °F 87% 29.48 in 3.0 mi SSE 13.8 mph 21.9 mph N/A   Overcast
12:15 PM 24.1 °F 12.5 °F 20.8 °F 87% 29.47 in 3.0 mi SSE 12.7 mph 25.3 mph N/A   Overcast
12:35 PM 24.1 °F 12.0 °F 20.7 °F 87% 29.47 in 4.0 mi SSE 13.8 mph 23.0 mph N/A   Overcast
12:55 PM 24.6 °F 13.8 °F 20.5 °F 84% 29.46 in 5.0 mi SSE 11.5 mph 24.2 mph N/A   Overcast
1:16 PM 24.8 °F 14.0 °F 20.7 °F 84% 29.46 in 7.0 mi SSE 11.5 mph 21.9 mph N/A   Overcast
1:35 PM 25.2 °F 12.9 °F 21.0 °F 84% 29.46 in 7.0 mi SE 15.0 mph 25.3 mph N/A   Overcast
1:55 PM 25.5 °F 15.5 °F 21.2 °F 84% 29.46 in 7.0 mi SSE 10.4 mph 23.0 mph N/A   Overcast
2:15 PM 25.7 °F 15.1 °F 21.2 °F 83% 29.46 in 5.0 mi SSE 11.5 mph 25.3 mph N/A   Haze
2:35 PM 25.7 °F 14.6 °F 21.4 °F 84% 29.46 in 10.0 mi SSE 12.7 mph - N/A   Overcast
2:55 PM 25.9 °F 15.3 °F 21.7 °F 84% 29.47 in 5.0 mi SSE 11.5 mph 21.9 mph N/A   Overcast
3:15 PM 25.7 °F 15.1 °F 22.3 °F 87% 29.47 in 5.0 mi SE 11.5 mph 19.6 mph N/A   Overcast
3:35 PM 26.1 °F 15.6 °F 22.8 °F 88% 29.47 in 4.0 mi SE 11.5 mph 23.0 mph N/A Snow Light Snow
3:55 PM 26.2 °F 17.1 °F 22.6 °F 86% 29.47 in 5.0 mi SE 9.2 mph 19.6 mph N/A   Overcast
4:15 PM 26.4 °F 16.6 °F 22.1 °F 84% 29.47 in 7.0 mi SE 10.4 mph 20.7 mph N/A   Overcast
4:35 PM 26.2 °F 15.2 °F 21.7 °F 83% 29.48 in 10.0 mi SE 12.7 mph 21.9 mph N/A   Overcast
4:55 PM 26.2 °F 17.1 °F 21.9 °F 84% 29.48 in 10.0 mi SE 9.2 mph - N/A   Overcast
5:16 PM 26.2 °F 15.2 °F 22.1 °F 84% 29.49 in 7.0 mi SE 12.7 mph 20.7 mph N/A   Overcast
5:35 PM 26.4 °F 18.0 °F 22.1 °F 84% 29.50 in 10.0 mi SE 8.1 mph 17.3 mph N/A   Overcast
5:55 PM 26.6 °F 15.7 °F 22.5 °F 84% 29.50 in 10.0 mi ESE 12.7 mph 18.4 mph N/A   Overcast
6:16 PM 26.6 °F 16.8 °F 22.6 °F 85% 29.51 in 10.0 mi SE 10.4 mph - N/A   Overcast
6:35 PM 26.6 °F 17.5 °F 22.5 °F 84% 29.51 in 10.0 mi SE 9.2 mph - N/A   Overcast
6:55 PM 26.6 °F 17.5 °F 22.5 °F 84% 29.52 in 10.0 mi SE 9.2 mph - N/A   Overcast
7:15 PM 26.6 °F 16.8 °F 22.3 °F 84% 29.52 in 10.0 mi SE 10.4 mph - N/A   Overcast
7:35 PM 27.0 °F 17.3 °F 22.5 °F 83% 29.52 in 10.0 mi SSE 10.4 mph 17.3 mph N/A   Overcast
7:56 PM 27.0 °F 17.3 °F 22.8 °F 84% 29.53 in 7.0 mi SE 10.4 mph 17.3 mph N/A   Overcast
8:15 PM 26.6 °F 16.2 °F 23.0 °F 86% 29.53 in 5.0 mi SE 11.5 mph 16.1 mph N/A Snow Light Snow
8:35 PM 26.6 °F 16.2 °F 23.5 °F 88% 29.53 in 3.0 mi SSE 11.5 mph - N/A Snow Light Snow
8:55 PM 26.2 °F 19.6 °F 23.4 °F 89% 29.53 in 2.5 mi SE 5.8 mph - N/A Snow Light Snow
9:15 PM 26.4 °F 16.0 °F 23.4 °F 88% 29.54 in 5.0 mi SE 11.5 mph - N/A Snow Light Snow
9:35 PM 26.6 °F 17.5 °F 23.0 °F 86% 29.54 in 7.0 mi SE 9.2 mph 16.1 mph N/A Snow Light Snow
9:55 PM 26.6 °F 17.5 °F 23.0 °F 86% 29.55 in 7.0 mi SE 9.2 mph - N/A Snow Light Snow
10:15 PM 26.2 °F 18.6 °F 23.5 °F 90% 29.55 in 5.0 mi ESE 6.9 mph - N/A Snow Light Snow
10:35 PM 26.2 °F 18.6 °F 23.7 °F 90% 29.56 in 4.0 mi ESE 6.9 mph - N/A Snow Light Snow
10:55 PM 26.1 °F 18.4 °F 23.7 °F 91% 29.55 in 4.0 mi ESE 6.9 mph - N/A Snow Light Snow
11:16 PM 26.2 °F 19.6 °F 23.5 °F 90% 29.55 in 7.0 mi ESE 5.8 mph - N/A   Overcast
11:35 PM 26.4 °F 19.8 °F 23.4 °F 88% 29.55 in 10.0 mi ESE 5.8 mph - N/A   Overcast
11:55 PM 26.4 °F 22.4 °F 23.5 °F 89% 29.56 in 7.0 mi SE 3.5 mph - N/A   Overcast